sensor_id;sensor_type;location;lat;lon;timestamp;P1;durP1;ratioP1;P2;durP2;ratioP2
61200;SDS011;47065;52.898;6.992;2023-08-07T00:00:21;14.48;;;7.50;;
61200;SDS011;47065;52.898;6.992;2023-08-07T00:02:47;11.00;;;7.82;;
61200;SDS011;47065;52.898;6.992;2023-08-07T00:05:13;12.13;;;8.30;;
61200;SDS011;47065;52.898;6.992;2023-08-07T00:07:41;13.70;;;7.68;;
61200;SDS011;47065;52.898;6.992;2023-08-07T00:10:07;12.10;;;7.68;;
61200;SDS011;47065;52.898;6.992;2023-08-07T00:12:33;12.27;;;8.38;;
61200;SDS011;47065;52.898;6.992;2023-08-07T00:14:59;14.10;;;7.70;;
61200;SDS011;47065;52.898;6.992;2023-08-07T00:17:25;11.60;;;8.60;;
61200;SDS011;47065;52.898;6.992;2023-08-07T00:19:51;13.27;;;8.68;;
61200;SDS011;47065;52.898;6.992;2023-08-07T00:22:17;14.05;;;8.68;;
61200;SDS011;47065;52.898;6.992;2023-08-07T00:24:42;12.95;;;9.00;;
61200;SDS011;47065;52.898;6.992;2023-08-07T00:27:08;12.65;;;9.10;;
61200;SDS011;47065;52.898;6.992;2023-08-07T00:29:37;11.57;;;8.70;;
61200;SDS011;47065;52.898;6.992;2023-08-07T00:32:03;9.95;;;8.30;;
61200;SDS011;47065;52.898;6.992;2023-08-07T00:34:29;13.82;;;8.93;;
61200;SDS011;47065;52.898;6.992;2023-08-07T00:36:55;14.95;;;9.82;;
61200;SDS011;47065;52.898;6.992;2023-08-07T00:39:21;16.50;;;8.75;;
61200;SDS011;47065;52.898;6.992;2023-08-07T00:41:47;16.50;;;9.60;;
61200;SDS011;47065;52.898;6.992;2023-08-07T00:44:12;11.70;;;8.75;;
61200;SDS011;47065;52.898;6.992;2023-08-07T00:46:38;13.63;;;9.52;;
61200;SDS011;47065;52.898;6.992;2023-08-07T00:49:05;13.18;;;8.90;;
61200;SDS011;47065;52.898;6.992;2023-08-07T00:51:31;15.23;;;9.32;;
61200;SDS011;47065;52.898;6.992;2023-08-07T00:53:57;14.02;;;9.23;;
61200;SDS011;47065;52.898;6.992;2023-08-07T00:56:25;15.15;;;9.15;;
61200;SDS011;47065;52.898;6.992;2023-08-07T00:58:51;15.95;;;10.05;;
61200;SDS011;47065;52.898;6.992;2023-08-07T01:01:18;14.35;;;9.20;;
61200;SDS011;47065;52.898;6.992;2023-08-07T01:03:44;11.13;;;8.65;;
61200;SDS011;47065;52.898;6.992;2023-08-07T01:06:09;13.57;;;8.73;;
61200;SDS011;47065;52.898;6.992;2023-08-07T01:08:35;12.13;;;8.32;;
61200;SDS011;47065;52.898;6.992;2023-08-07T01:16:44;12.27;;;8.90;;
61200;SDS011;47065;52.898;6.992;2023-08-07T01:19:27;9.98;;;7.75;;
61200;SDS011;47065;52.898;6.992;2023-08-07T01:24:38;11.70;;;7.70;;
61200;SDS011;47065;52.898;6.992;2023-08-07T01:32:34;10.35;;;7.75;;
61200;SDS011;47065;52.898;6.992;2023-08-07T01:35:01;10.90;;;7.20;;
61200;SDS011;47065;52.898;6.992;2023-08-07T01:37:28;11.60;;;6.75;;
61200;SDS011;47065;52.898;6.992;2023-08-07T01:39:56;8.68;;;5.70;;
61200;SDS011;47065;52.898;6.992;2023-08-07T01:42:25;9.98;;;6.35;;
61200;SDS011;47065;52.898;6.992;2023-08-07T01:44:52;9.98;;;5.70;;
61200;SDS011;47065;52.898;6.992;2023-08-07T01:47:17;7.65;;;6.07;;
61200;SDS011;47065;52.898;6.992;2023-08-07T01:49:43;9.32;;;6.22;;
61200;SDS011;47065;52.898;6.992;2023-08-07T01:52:09;7.85;;;5.82;;
61200;SDS011;47065;52.898;6.992;2023-08-07T01:54:36;9.48;;;6.05;;
61200;SDS011;47065;52.898;6.992;2023-08-07T01:57:02;10.23;;;6.53;;
61200;SDS011;47065;52.898;6.992;2023-08-07T01:59:27;7.30;;;6.45;;
61200;SDS011;47065;52.898;6.992;2023-08-07T02:01:53;12.77;;;7.68;;
61200;SDS011;47065;52.898;6.992;2023-08-07T02:04:19;9.73;;;7.00;;
61200;SDS011;47065;52.898;6.992;2023-08-07T02:06:44;8.70;;;6.38;;
61200;SDS011;47065;52.898;6.992;2023-08-07T02:09:10;12.88;;;6.78;;
61200;SDS011;47065;52.898;6.992;2023-08-07T02:11:35;13.43;;;6.68;;
61200;SDS011;47065;52.898;6.992;2023-08-07T02:14:01;9.20;;;6.50;;
61200;SDS011;47065;52.898;6.992;2023-08-07T02:16:27;9.52;;;5.88;;
61200;SDS011;47065;52.898;6.992;2023-08-07T02:18:53;8.20;;;6.45;;
61200;SDS011;47065;52.898;6.992;2023-08-07T02:21:19;9.93;;;5.80;;
61200;SDS011;47065;52.898;6.992;2023-08-07T02:23:44;10.05;;;6.38;;
61200;SDS011;47065;52.898;6.992;2023-08-07T02:26:10;11.77;;;6.05;;
61200;SDS011;47065;52.898;6.992;2023-08-07T02:28:35;10.10;;;4.95;;
61200;SDS011;47065;52.898;6.992;2023-08-07T02:31:01;7.82;;;4.75;;
61200;SDS011;47065;52.898;6.992;2023-08-07T02:33:27;7.68;;;3.88;;
61200;SDS011;47065;52.898;6.992;2023-08-07T02:35:55;10.10;;;5.43;;
61200;SDS011;47065;52.898;6.992;2023-08-07T02:38:21;8.38;;;4.00;;
61200;SDS011;47065;52.898;6.992;2023-08-07T02:40:46;11.75;;;3.47;;
61200;SDS011;47065;52.898;6.992;2023-08-07T02:43:12;8.88;;;3.88;;
61200;SDS011;47065;52.898;6.992;2023-08-07T02:45:38;12.95;;;3.65;;
61200;SDS011;47065;52.898;6.992;2023-08-07T02:48:03;13.98;;;5.28;;
61200;SDS011;47065;52.898;6.992;2023-08-07T02:50:30;14.38;;;4.43;;
61200;SDS011;47065;52.898;6.992;2023-08-07T02:52:57;8.10;;;3.83;;
61200;SDS011;47065;52.898;6.992;2023-08-07T02:55:23;13.13;;;4.25;;
61200;SDS011;47065;52.898;6.992;2023-08-07T02:57:49;15.30;;;3.70;;
61200;SDS011;47065;52.898;6.992;2023-08-07T03:00:15;8.60;;;3.40;;
61200;SDS011;47065;52.898;6.992;2023-08-07T03:02:40;11.45;;;3.35;;
61200;SDS011;47065;52.898;6.992;2023-08-07T03:05:06;12.52;;;3.80;;
61200;SDS011;47065;52.898;6.992;2023-08-07T03:07:32;9.40;;;3.08;;
61200;SDS011;47065;52.898;6.992;2023-08-07T03:09:58;11.40;;;3.33;;
61200;SDS011;47065;52.898;6.992;2023-08-07T03:12:23;9.40;;;2.83;;
61200;SDS011;47065;52.898;6.992;2023-08-07T03:14:49;15.02;;;3.50;;
61200;SDS011;47065;52.898;6.992;2023-08-07T03:17:15;9.95;;;3.47;;
61200;SDS011;47065;52.898;6.992;2023-08-07T03:19:42;10.57;;;2.60;;
61200;SDS011;47065;52.898;6.992;2023-08-07T03:22:08;13.30;;;3.42;;
61200;SDS011;47065;52.898;6.992;2023-08-07T03:24:34;13.13;;;3.28;;
61200;SDS011;47065;52.898;6.992;2023-08-07T03:26:59;13.13;;;3.28;;
61200;SDS011;47065;52.898;6.992;2023-08-07T03:29:25;13.90;;;3.17;;
61200;SDS011;47065;52.898;6.992;2023-08-07T03:31:51;17.10;;;3.33;;
61200;SDS011;47065;52.898;6.992;2023-08-07T03:34:16;14.10;;;3.38;;
61200;SDS011;47065;52.898;6.992;2023-08-07T03:36:42;12.57;;;3.65;;
61200;SDS011;47065;52.898;6.992;2023-08-07T03:39:08;12.40;;;2.88;;
61200;SDS011;47065;52.898;6.992;2023-08-07T03:41:35;6.90;;;2.72;;
61200;SDS011;47065;52.898;6.992;2023-08-07T03:44:00;11.07;;;3.22;;
61200;SDS011;47065;52.898;6.992;2023-08-07T03:46:26;14.30;;;3.25;;
61200;SDS011;47065;52.898;6.992;2023-08-07T03:48:52;7.65;;;2.97;;
61200;SDS011;47065;52.898;6.992;2023-08-07T03:51:17;7.70;;;2.50;;
61200;SDS011;47065;52.898;6.992;2023-08-07T03:53:43;14.57;;;3.45;;
61200;SDS011;47065;52.898;6.992;2023-08-07T03:56:10;9.82;;;2.88;;
61200;SDS011;47065;52.898;6.992;2023-08-07T03:58:36;10.68;;;3.72;;
61200;SDS011;47065;52.898;6.992;2023-08-07T04:01:02;16.02;;;3.53;;
61200;SDS011;47065;52.898;6.992;2023-08-07T04:03:27;11.07;;;3.25;;
61200;SDS011;47065;52.898;6.992;2023-08-07T04:05:53;19.60;;;4.18;;
61200;SDS011;47065;52.898;6.992;2023-08-07T04:08:20;16.63;;;3.50;;
61200;SDS011;47065;52.898;6.992;2023-08-07T04:10:57;12.68;;;3.97;;
61200;SDS011;47065;52.898;6.992;2023-08-07T04:13:24;11.27;;;3.45;;
61200;SDS011;47065;52.898;6.992;2023-08-07T04:15:50;13.50;;;3.58;;
61200;SDS011;47065;52.898;6.992;2023-08-07T04:18:15;15.18;;;3.35;;
61200;SDS011;47065;52.898;6.992;2023-08-07T04:20:41;10.23;;;3.17;;
61200;SDS011;47065;52.898;6.992;2023-08-07T04:23:07;18.50;;;3.65;;
61200;SDS011;47065;52.898;6.992;2023-08-07T04:25:34;8.73;;;3.50;;
61200;SDS011;47065;52.898;6.992;2023-08-07T04:27:59;11.10;;;3.40;;
61200;SDS011;47065;52.898;6.992;2023-08-07T04:30:25;14.25;;;3.60;;
61200;SDS011;47065;52.898;6.992;2023-08-07T04:32:50;7.60;;;2.78;;
61200;SDS011;47065;52.898;6.992;2023-08-07T04:35:16;8.93;;;3.72;;
61200;SDS011;47065;52.898;6.992;2023-08-07T04:37:42;10.70;;;2.88;;
61200;SDS011;47065;52.898;6.992;2023-08-07T04:40:07;16.15;;;4.45;;
61200;SDS011;47065;52.898;6.992;2023-08-07T04:42:34;11.57;;;3.33;;
61200;SDS011;47065;52.898;6.992;2023-08-07T04:44:59;16.80;;;3.33;;
61200;SDS011;47065;52.898;6.992;2023-08-07T04:47:27;14.95;;;4.72;;
61200;SDS011;47065;52.898;6.992;2023-08-07T04:49:53;12.48;;;3.70;;
61200;SDS011;47065;52.898;6.992;2023-08-07T04:52:19;12.48;;;3.67;;
61200;SDS011;47065;52.898;6.992;2023-08-07T04:54:44;15.00;;;3.83;;
61200;SDS011;47065;52.898;6.992;2023-08-07T04:57:10;9.38;;;3.72;;
61200;SDS011;47065;52.898;6.992;2023-08-07T04:59:35;6.35;;;2.55;;
61200;SDS011;47065;52.898;6.992;2023-08-07T05:02:01;5.20;;;2.70;;
61200;SDS011;47065;52.898;6.992;2023-08-07T05:04:27;7.80;;;2.45;;
61200;SDS011;47065;52.898;6.992;2023-08-07T05:06:52;8.98;;;2.90;;
61200;SDS011;47065;52.898;6.992;2023-08-07T05:09:18;11.50;;;3.35;;
61200;SDS011;47065;52.898;6.992;2023-08-07T05:11:44;7.25;;;2.92;;
61200;SDS011;47065;52.898;6.992;2023-08-07T05:14:09;8.57;;;3.20;;
61200;SDS011;47065;52.898;6.992;2023-08-07T05:16:35;10.90;;;3.40;;
61200;SDS011;47065;52.898;6.992;2023-08-07T05:19:01;6.70;;;3.00;;
61200;SDS011;47065;52.898;6.992;2023-08-07T05:21:26;8.02;;;3.13;;
61200;SDS011;47065;52.898;6.992;2023-08-07T05:23:52;8.00;;;3.40;;
61200;SDS011;47065;52.898;6.992;2023-08-07T05:26:20;11.70;;;2.95;;
61200;SDS011;47065;52.898;6.992;2023-08-07T05:28:46;8.95;;;3.80;;
61200;SDS011;47065;52.898;6.992;2023-08-07T05:31:12;9.48;;;3.20;;
61200;SDS011;47065;52.898;6.992;2023-08-07T05:33:38;11.07;;;3.35;;
61200;SDS011;47065;52.898;6.992;2023-08-07T05:36:03;14.20;;;4.88;;
61200;SDS011;47065;52.898;6.992;2023-08-07T05:38:31;7.38;;;3.20;;
61200;SDS011;47065;52.898;6.992;2023-08-07T05:40:57;9.98;;;3.85;;
61200;SDS011;47065;52.898;6.992;2023-08-07T05:43:22;8.45;;;3.92;;
61200;SDS011;47065;52.898;6.992;2023-08-07T05:45:48;15.68;;;4.75;;
61200;SDS011;47065;52.898;6.992;2023-08-07T05:48:14;12.02;;;4.00;;
61200;SDS011;47065;52.898;6.992;2023-08-07T05:50:41;13.90;;;4.57;;
61200;SDS011;47065;52.898;6.992;2023-08-07T05:53:07;10.95;;;4.25;;
61200;SDS011;47065;52.898;6.992;2023-08-07T05:55:33;16.65;;;5.25;;
61200;SDS011;47065;52.898;6.992;2023-08-07T05:57:59;16.83;;;4.60;;
61200;SDS011;47065;52.898;6.992;2023-08-07T06:00:25;16.00;;;4.63;;
61200;SDS011;47065;52.898;6.992;2023-08-07T06:02:50;18.30;;;4.43;;
61200;SDS011;47065;52.898;6.992;2023-08-07T06:05:16;14.82;;;4.60;;
61200;SDS011;47065;52.898;6.992;2023-08-07T06:07:42;9.52;;;4.15;;
61200;SDS011;47065;52.898;6.992;2023-08-07T06:10:08;9.88;;;3.88;;
61200;SDS011;47065;52.898;6.992;2023-08-07T06:12:34;10.50;;;4.00;;
61200;SDS011;47065;52.898;6.992;2023-08-07T06:14:59;20.95;;;5.60;;
61200;SDS011;47065;52.898;6.992;2023-08-07T06:17:25;11.25;;;3.95;;
61200;SDS011;47065;52.898;6.992;2023-08-07T06:19:51;11.18;;;3.50;;
61200;SDS011;47065;52.898;6.992;2023-08-07T06:22:17;12.02;;;3.85;;
61200;SDS011;47065;52.898;6.992;2023-08-07T06:24:43;9.98;;;4.25;;
61200;SDS011;47065;52.898;6.992;2023-08-07T06:27:08;13.73;;;5.20;;
61200;SDS011;47065;52.898;6.992;2023-08-07T06:29:34;13.43;;;4.68;;
61200;SDS011;47065;52.898;6.992;2023-08-07T06:32:01;13.00;;;4.45;;
61200;SDS011;47065;52.898;6.992;2023-08-07T06:34:27;15.38;;;3.75;;
61200;SDS011;47065;52.898;6.992;2023-08-07T06:36:53;14.50;;;3.88;;
61200;SDS011;47065;52.898;6.992;2023-08-07T06:39:19;15.38;;;4.03;;
61200;SDS011;47065;52.898;6.992;2023-08-07T06:41:45;15.15;;;4.50;;
61200;SDS011;47065;52.898;6.992;2023-08-07T06:44:10;10.48;;;3.60;;
61200;SDS011;47065;52.898;6.992;2023-08-07T06:46:36;18.25;;;4.72;;
61200;SDS011;47065;52.898;6.992;2023-08-07T06:49:02;15.18;;;4.13;;
61200;SDS011;47065;52.898;6.992;2023-08-07T06:51:27;13.25;;;4.20;;
61200;SDS011;47065;52.898;6.992;2023-08-07T06:53:53;9.85;;;3.65;;
61200;SDS011;47065;52.898;6.992;2023-08-07T06:56:19;17.45;;;4.38;;
61200;SDS011;47065;52.898;6.992;2023-08-07T06:58:44;14.15;;;3.95;;
61200;SDS011;47065;52.898;6.992;2023-08-07T07:01:10;7.28;;;3.17;;
61200;SDS011;47065;52.898;6.992;2023-08-07T07:03:36;12.77;;;3.20;;
61200;SDS011;47065;52.898;6.992;2023-08-07T07:06:01;11.23;;;2.85;;
61200;SDS011;47065;52.898;6.992;2023-08-07T07:08:27;10.18;;;3.60;;
61200;SDS011;47065;52.898;6.992;2023-08-07T07:10:53;12.27;;;3.53;;
61200;SDS011;47065;52.898;6.992;2023-08-07T07:13:18;15.32;;;4.22;;
61200;SDS011;47065;52.898;6.992;2023-08-07T07:15:44;21.70;;;4.25;;
61200;SDS011;47065;52.898;6.992;2023-08-07T07:18:09;13.80;;;2.95;;
61200;SDS011;47065;52.898;6.992;2023-08-07T07:20:35;12.40;;;4.18;;
61200;SDS011;47065;52.898;6.992;2023-08-07T07:23:01;12.32;;;3.60;;
61200;SDS011;47065;52.898;6.992;2023-08-07T07:25:26;8.45;;;3.30;;
61200;SDS011;47065;52.898;6.992;2023-08-07T07:27:52;10.68;;;3.42;;
61200;SDS011;47065;52.898;6.992;2023-08-07T07:30:18;15.98;;;3.08;;
61200;SDS011;47065;52.898;6.992;2023-08-07T07:32:44;7.55;;;3.08;;
61200;SDS011;47065;52.898;6.992;2023-08-07T07:35:11;12.30;;;4.75;;
61200;SDS011;47065;52.898;6.992;2023-08-07T07:37:36;12.48;;;3.33;;
61200;SDS011;47065;52.898;6.992;2023-08-07T07:40:02;12.52;;;4.25;;
61200;SDS011;47065;52.898;6.992;2023-08-07T07:42:28;10.57;;;3.88;;
61200;SDS011;47065;52.898;6.992;2023-08-07T07:44:53;13.63;;;3.30;;
61200;SDS011;47065;52.898;6.992;2023-08-07T07:47:19;13.02;;;4.40;;
61200;SDS011;47065;52.898;6.992;2023-08-07T07:49:46;7.05;;;2.55;;
61200;SDS011;47065;52.898;6.992;2023-08-07T07:52:15;18.65;;;3.95;;
61200;SDS011;47065;52.898;6.992;2023-08-07T07:54:40;11.82;;;2.70;;
61200;SDS011;47065;52.898;6.992;2023-08-07T07:57:06;11.52;;;3.80;;
61200;SDS011;47065;52.898;6.992;2023-08-07T07:59:32;10.48;;;1.88;;
61200;SDS011;47065;52.898;6.992;2023-08-07T08:01:58;9.50;;;2.80;;
61200;SDS011;47065;52.898;6.992;2023-08-07T08:04:23;10.80;;;2.60;;
61200;SDS011;47065;52.898;6.992;2023-08-07T08:06:49;9.70;;;2.70;;
61200;SDS011;47065;52.898;6.992;2023-08-07T08:09:14;7.07;;;2.60;;
61200;SDS011;47065;52.898;6.992;2023-08-07T08:11:40;10.05;;;2.05;;
61200;SDS011;47065;52.898;6.992;2023-08-07T08:14:06;12.38;;;3.30;;
61200;SDS011;47065;52.898;6.992;2023-08-07T08:16:32;9.02;;;2.95;;
61200;SDS011;47065;52.898;6.992;2023-08-07T08:18:57;7.55;;;2.80;;
61200;SDS011;47065;52.898;6.992;2023-08-07T08:21:23;12.77;;;4.10;;
61200;SDS011;47065;52.898;6.992;2023-08-07T08:23:49;7.60;;;2.50;;
61200;SDS011;47065;52.898;6.992;2023-08-07T08:26:14;10.63;;;2.95;;
61200;SDS011;47065;52.898;6.992;2023-08-07T08:28:40;11.18;;;3.70;;
61200;SDS011;47065;52.898;6.992;2023-08-07T08:31:05;8.77;;;2.88;;
61200;SDS011;47065;52.898;6.992;2023-08-07T08:33:31;10.25;;;2.83;;
61200;SDS011;47065;52.898;6.992;2023-08-07T08:35:57;8.55;;;2.25;;
61200;SDS011;47065;52.898;6.992;2023-08-07T08:38:22;8.05;;;3.47;;
61200;SDS011;47065;52.898;6.992;2023-08-07T08:40:48;8.60;;;3.10;;
61200;SDS011;47065;52.898;6.992;2023-08-07T08:43:17;11.13;;;3.80;;
61200;SDS011;47065;52.898;6.992;2023-08-07T08:45:44;9.63;;;2.78;;
61200;SDS011;47065;52.898;6.992;2023-08-07T08:48:10;7.63;;;2.08;;
61200;SDS011;47065;52.898;6.992;2023-08-07T08:50:41;5.20;;;1.88;;
61200;SDS011;47065;52.898;6.992;2023-08-07T08:53:08;4.68;;;2.45;;
61200;SDS011;47065;52.898;6.992;2023-08-07T08:55:34;4.85;;;2.17;;
61200;SDS011;47065;52.898;6.992;2023-08-07T08:58:01;5.75;;;2.10;;
61200;SDS011;47065;52.898;6.992;2023-08-07T09:00:27;4.68;;;2.30;;
61200;SDS011;47065;52.898;6.992;2023-08-07T09:02:54;7.30;;;2.72;;
61200;SDS011;47065;52.898;6.992;2023-08-07T09:05:20;8.55;;;2.55;;
61200;SDS011;47065;52.898;6.992;2023-08-07T09:07:49;10.38;;;2.85;;
61200;SDS011;47065;52.898;6.992;2023-08-07T09:10:15;11.73;;;2.70;;
61200;SDS011;47065;52.898;6.992;2023-08-07T09:12:45;10.70;;;2.72;;
61200;SDS011;47065;52.898;6.992;2023-08-07T09:15:18;9.38;;;2.97;;
61200;SDS011;47065;52.898;6.992;2023-08-07T09:17:44;7.45;;;2.30;;
61200;SDS011;47065;52.898;6.992;2023-08-07T09:20:11;6.88;;;2.35;;
61200;SDS011;47065;52.898;6.992;2023-08-07T09:22:41;6.80;;;2.20;;
61200;SDS011;47065;52.898;6.992;2023-08-07T09:25:07;6.95;;;2.10;;
61200;SDS011;47065;52.898;6.992;2023-08-07T09:27:35;8.32;;;2.75;;
61200;SDS011;47065;52.898;6.992;2023-08-07T09:30:04;7.10;;;1.83;;
61200;SDS011;47065;52.898;6.992;2023-08-07T09:32:33;6.93;;;2.00;;
61200;SDS011;47065;52.898;6.992;2023-08-07T09:34:59;7.43;;;2.30;;
61200;SDS011;47065;52.898;6.992;2023-08-07T09:37:26;8.30;;;2.50;;
61200;SDS011;47065;52.898;6.992;2023-08-07T09:39:52;5.40;;;2.63;;
61200;SDS011;47065;52.898;6.992;2023-08-07T09:42:18;6.68;;;1.98;;
61200;SDS011;47065;52.898;6.992;2023-08-07T09:44:44;5.60;;;1.77;;
61200;SDS011;47065;52.898;6.992;2023-08-07T09:47:17;10.65;;;2.03;;
61200;SDS011;47065;52.898;6.992;2023-08-07T09:49:44;6.10;;;1.83;;
61200;SDS011;47065;52.898;6.992;2023-08-07T09:52:11;5.95;;;2.65;;
61200;SDS011;47065;52.898;6.992;2023-08-07T09:54:39;5.65;;;1.73;;
61200;SDS011;47065;52.898;6.992;2023-08-07T09:57:05;6.65;;;1.60;;
61200;SDS011;47065;52.898;6.992;2023-08-07T09:59:32;4.30;;;1.60;;
61200;SDS011;47065;52.898;6.992;2023-08-07T10:01:59;5.22;;;2.22;;
61200;SDS011;47065;52.898;6.992;2023-08-07T10:04:27;2.47;;;1.40;;
61200;SDS011;47065;52.898;6.992;2023-08-07T10:06:53;6.32;;;2.05;;
61200;SDS011;47065;52.898;6.992;2023-08-07T10:09:19;7.43;;;1.70;;
61200;SDS011;47065;52.898;6.992;2023-08-07T10:11:46;5.00;;;2.10;;
61200;SDS011;47065;52.898;6.992;2023-08-07T10:14:12;5.25;;;1.70;;
61200;SDS011;47065;52.898;6.992;2023-08-07T10:16:39;6.85;;;3.25;;
61200;SDS011;47065;52.898;6.992;2023-08-07T10:19:06;7.32;;;2.08;;
61200;SDS011;47065;52.898;6.992;2023-08-07T10:21:37;6.30;;;2.15;;
61200;SDS011;47065;52.898;6.992;2023-08-07T10:24:04;11.10;;;2.40;;
61200;SDS011;47065;52.898;6.992;2023-08-07T10:26:35;7.30;;;2.05;;
61200;SDS011;47065;52.898;6.992;2023-08-07T10:29:02;6.60;;;2.13;;
61200;SDS011;47065;52.898;6.992;2023-08-07T10:31:31;7.18;;;1.88;;
61200;SDS011;47065;52.898;6.992;2023-08-07T10:34:00;7.85;;;1.73;;
61200;SDS011;47065;52.898;6.992;2023-08-07T10:36:33;4.72;;;1.92;;
61200;SDS011;47065;52.898;6.992;2023-08-07T10:39:06;8.40;;;2.10;;
61200;SDS011;47065;52.898;6.992;2023-08-07T10:41:40;10.77;;;2.13;;
61200;SDS011;47065;52.898;6.992;2023-08-07T10:44:19;6.15;;;1.90;;
61200;SDS011;47065;52.898;6.992;2023-08-07T10:46:49;7.33;;;2.37;;
61200;SDS011;47065;52.898;6.992;2023-08-07T10:49:33;5.88;;;1.80;;
61200;SDS011;47065;52.898;6.992;2023-08-07T10:54:49;6.45;;;2.22;;
61200;SDS011;47065;52.898;6.992;2023-08-07T10:57:18;8.57;;;2.38;;
61200;SDS011;47065;52.898;6.992;2023-08-07T10:59:51;4.63;;;1.92;;
61200;SDS011;47065;52.898;6.992;2023-08-07T11:02:30;10.63;;;2.83;;
61200;SDS011;47065;52.898;6.992;2023-08-07T11:04:58;7.68;;;2.17;;
61200;SDS011;47065;52.898;6.992;2023-08-07T11:07:24;6.28;;;1.85;;
61200;SDS011;47065;52.898;6.992;2023-08-07T11:09:51;6.63;;;1.80;;
61200;SDS011;47065;52.898;6.992;2023-08-07T11:12:17;8.30;;;2.50;;
61200;SDS011;47065;52.898;6.992;2023-08-07T11:14:44;10.30;;;2.47;;
61200;SDS011;47065;52.898;6.992;2023-08-07T11:17:09;9.38;;;2.13;;
61200;SDS011;47065;52.898;6.992;2023-08-07T11:19:35;6.38;;;2.33;;
61200;SDS011;47065;52.898;6.992;2023-08-07T11:22:01;7.40;;;2.70;;
61200;SDS011;47065;52.898;6.992;2023-08-07T11:24:27;12.23;;;3.03;;
61200;SDS011;47065;52.898;6.992;2023-08-07T11:26:53;5.50;;;1.60;;
61200;SDS011;47065;52.898;6.992;2023-08-07T11:29:21;4.90;;;2.03;;
61200;SDS011;47065;52.898;6.992;2023-08-07T11:31:49;4.10;;;1.85;;
61200;SDS011;47065;52.898;6.992;2023-08-07T11:34:18;4.97;;;1.48;;
61200;SDS011;47065;52.898;6.992;2023-08-07T11:36:44;9.70;;;2.10;;
61200;SDS011;47065;52.898;6.992;2023-08-07T11:39:11;10.05;;;2.42;;
61200;SDS011;47065;52.898;6.992;2023-08-07T11:41:37;7.45;;;1.88;;
61200;SDS011;47065;52.898;6.992;2023-08-07T11:44:02;3.50;;;1.60;;
61200;SDS011;47065;52.898;6.992;2023-08-07T11:46:28;5.10;;;1.48;;
61200;SDS011;47065;52.898;6.992;2023-08-07T11:48:54;5.18;;;1.73;;
61200;SDS011;47065;52.898;6.992;2023-08-07T11:51:22;3.08;;;1.38;;
61200;SDS011;47065;52.898;6.992;2023-08-07T11:53:47;6.28;;;1.50;;
61200;SDS011;47065;52.898;6.992;2023-08-07T11:56:13;6.68;;;1.45;;
61200;SDS011;47065;52.898;6.992;2023-08-07T11:58:40;4.47;;;1.23;;
61200;SDS011;47065;52.898;6.992;2023-08-07T12:01:11;5.40;;;2.25;;
61200;SDS011;47065;52.898;6.992;2023-08-07T12:03:38;4.25;;;1.70;;
61200;SDS011;47065;52.898;6.992;2023-08-07T12:06:08;2.55;;;1.45;;
61200;SDS011;47065;52.898;6.992;2023-08-07T12:08:35;3.10;;;1.63;;
61200;SDS011;47065;52.898;6.992;2023-08-07T12:11:02;4.50;;;1.55;;
61200;SDS011;47065;52.898;6.992;2023-08-07T12:13:29;8.40;;;1.92;;
61200;SDS011;47065;52.898;6.992;2023-08-07T12:15:57;4.45;;;1.20;;
61200;SDS011;47065;52.898;6.992;2023-08-07T12:18:23;6.40;;;1.60;;
61200;SDS011;47065;52.898;6.992;2023-08-07T12:21:02;5.90;;;1.42;;
61200;SDS011;47065;52.898;6.992;2023-08-07T12:23:34;3.83;;;1.42;;
61200;SDS011;47065;52.898;6.992;2023-08-07T12:26:00;4.78;;;1.63;;
61200;SDS011;47065;52.898;6.992;2023-08-07T12:28:26;2.42;;;1.50;;
61200;SDS011;47065;52.898;6.992;2023-08-07T12:30:52;6.07;;;1.60;;
61200;SDS011;47065;52.898;6.992;2023-08-07T12:33:18;3.95;;;2.10;;
61200;SDS011;47065;52.898;6.992;2023-08-07T12:35:44;6.03;;;1.88;;
61200;SDS011;47065;52.898;6.992;2023-08-07T12:38:10;3.85;;;1.50;;
61200;SDS011;47065;52.898;6.992;2023-08-07T12:40:38;2.67;;;1.35;;
61200;SDS011;47065;52.898;6.992;2023-08-07T12:43:05;5.15;;;1.40;;
61200;SDS011;47065;52.898;6.992;2023-08-07T12:45:31;5.75;;;1.60;;
61200;SDS011;47065;52.898;6.992;2023-08-07T12:47:57;3.67;;;1.70;;
61200;SDS011;47065;52.898;6.992;2023-08-07T12:50:23;6.32;;;1.98;;
61200;SDS011;47065;52.898;6.992;2023-08-07T12:52:49;6.68;;;2.08;;
61200;SDS011;47065;52.898;6.992;2023-08-07T12:55:14;5.93;;;1.70;;
61200;SDS011;47065;52.898;6.992;2023-08-07T12:57:43;6.65;;;2.40;;
61200;SDS011;47065;52.898;6.992;2023-08-07T13:00:10;10.30;;;2.03;;
61200;SDS011;47065;52.898;6.992;2023-08-07T13:02:40;7.53;;;2.25;;
61200;SDS011;47065;52.898;6.992;2023-08-07T13:05:07;5.25;;;1.70;;
61200;SDS011;47065;52.898;6.992;2023-08-07T13:07:34;7.88;;;1.35;;
61200;SDS011;47065;52.898;6.992;2023-08-07T13:10:00;6.57;;;1.38;;
61200;SDS011;47065;52.898;6.992;2023-08-07T13:12:25;16.75;;;2.53;;
61200;SDS011;47065;52.898;6.992;2023-08-07T13:14:51;4.68;;;2.13;;
61200;SDS011;47065;52.898;6.992;2023-08-07T13:17:16;4.28;;;1.92;;
61200;SDS011;47065;52.898;6.992;2023-08-07T13:19:42;4.68;;;1.50;;
61200;SDS011;47065;52.898;6.992;2023-08-07T13:22:08;3.28;;;1.30;;
61200;SDS011;47065;52.898;6.992;2023-08-07T13:24:33;4.18;;;1.63;;
61200;SDS011;47065;52.898;6.992;2023-08-07T13:26:59;3.40;;;1.50;;
61200;SDS011;47065;52.898;6.992;2023-08-07T13:29:25;5.80;;;1.60;;
61200;SDS011;47065;52.898;6.992;2023-08-07T13:31:54;4.60;;;1.58;;
61200;SDS011;47065;52.898;6.992;2023-08-07T13:34:20;3.70;;;1.48;;
61200;SDS011;47065;52.898;6.992;2023-08-07T13:36:46;5.32;;;1.35;;
61200;SDS011;47065;52.898;6.992;2023-08-07T13:39:12;5.93;;;1.50;;
61200;SDS011;47065;52.898;6.992;2023-08-07T13:41:38;4.65;;;1.90;;
61200;SDS011;47065;52.898;6.992;2023-08-07T13:44:04;6.03;;;1.70;;
61200;SDS011;47065;52.898;6.992;2023-08-07T13:46:30;2.55;;;1.85;;
61200;SDS011;47065;52.898;6.992;2023-08-07T13:48:55;2.55;;;1.50;;
61200;SDS011;47065;52.898;6.992;2023-08-07T13:51:21;3.33;;;1.60;;
61200;SDS011;47065;52.898;6.992;2023-08-07T13:53:47;4.53;;;1.67;;
61200;SDS011;47065;52.898;6.992;2023-08-07T13:56:12;3.95;;;1.50;;
61200;SDS011;47065;52.898;6.992;2023-08-07T13:58:39;3.17;;;1.63;;
61200;SDS011;47065;52.898;6.992;2023-08-07T14:01:04;4.82;;;1.92;;
61200;SDS011;47065;52.898;6.992;2023-08-07T14:03:30;4.13;;;1.50;;
61200;SDS011;47065;52.898;6.992;2023-08-07T14:05:56;4.57;;;1.88;;
61200;SDS011;47065;52.898;6.992;2023-08-07T14:08:22;2.92;;;1.38;;
61200;SDS011;47065;52.898;6.992;2023-08-07T14:10:48;6.18;;;1.73;;
61200;SDS011;47065;52.898;6.992;2023-08-07T14:13:14;4.90;;;1.60;;
61200;SDS011;47065;52.898;6.992;2023-08-07T14:15:39;2.88;;;2.00;;
61200;SDS011;47065;52.898;6.992;2023-08-07T14:18:05;5.43;;;1.90;;
61200;SDS011;47065;52.898;6.992;2023-08-07T14:20:31;2.55;;;1.45;;
61200;SDS011;47065;52.898;6.992;2023-08-07T14:22:57;5.97;;;2.22;;
61200;SDS011;47065;52.898;6.992;2023-08-07T14:25:23;8.15;;;1.45;;
61200;SDS011;47065;52.898;6.992;2023-08-07T14:27:49;8.25;;;2.30;;
61200;SDS011;47065;52.898;6.992;2023-08-07T14:30:15;6.07;;;2.30;;
61200;SDS011;47065;52.898;6.992;2023-08-07T14:32:41;5.85;;;1.75;;
61200;SDS011;47065;52.898;6.992;2023-08-07T14:35:11;3.33;;;1.80;;
61200;SDS011;47065;52.898;6.992;2023-08-07T14:37:38;6.05;;;2.00;;
61200;SDS011;47065;52.898;6.992;2023-08-07T14:40:04;6.47;;;1.98;;
61200;SDS011;47065;52.898;6.992;2023-08-07T14:42:31;7.18;;;1.30;;
61200;SDS011;47065;52.898;6.992;2023-08-07T14:44:57;9.73;;;2.45;;
61200;SDS011;47065;52.898;6.992;2023-08-07T14:47:23;8.30;;;1.80;;
61200;SDS011;47065;52.898;6.992;2023-08-07T14:49:50;6.18;;;2.08;;
61200;SDS011;47065;52.898;6.992;2023-08-07T14:52:15;6.30;;;2.28;;